Aérodrome :
LOGIN :

S'inscrire | Disclaimer

   EN    FR    IT 

 










Légende :    VFR   VFR Marginal   IFR   IFR Intensif   IFR Très Intensif
Visi : 
Plafond : 
>= 8 km
>= 3000ft
5 à 8 km
1000 à 3000 ft
1500m à 5 km
500 à 1000 ft
800 à 1500m
200 à 500 ft
< 800m
< 200 ft
Symboles :   Orages  Brouillard  Fortes neiges  Fortes précipitations  Vent > 20 kt
SIGMETs :   Divers  Orages  Givrage  Turbulence  Onde Orograph.  Cendres Volcan.






- Altitude de l'aérodrome : 362 ft
- Code IATA : WAW


EPWA - Warsaw Okecie

DERNIER METAR :
  • 020630Z 11008KT 8000 BKN008 06/05 Q1013 TEMPO SCT008

METARs EXPIRÉS :
  • 020600Z 11008KT 7000 SCT008 05/04 Q1012 TEMPO BKN008
  • 020530Z 11009KT 7000 FEW008 05/04 Q1012 TEMPO BKN007
  • 020500Z 11009KT 8000 FEW008 05/04 Q1012 TEMPO BKN008
  • 020430Z 12009KT 9000 FEW007 05/04 Q1012 TEMPO BKN007
  • 012100Z 12011KT 9999 BKN015 08/05 Q1013 NOSIG
  • 020400Z 11009KT 9000 NSC 05/04 Q1012 NOSIG
  • 020330Z 11009KT 9000 NSC 06/04 Q1012 NOSIG
  • 020300Z 12009KT 9000 FEW011 06/05 Q1012 TEMPO BKN010
  • 020230Z 12009KT 9999 BKN012 06/04 Q1012 NOSIG
  • 020200Z 11009KT 9000 BKN012 06/05 Q1012 NOSIG
  • 020130Z 12010KT 9999 FEW012 06/05 Q1012 NOSIG

TAF TAF EPWA
Valide du 02 à 06h jusqu'au 03 à 06h UTC


020530Z 0206/0306 11010KT 9000 FEW009
PROB40 0206/0209 BKN006 BKN010
PROB30
TEMPO 0223/0306 BKN008



MET'MAP, la Météo Aéronautique d'un coup d'oeil ! - Copyright ORBIFLY Décembre 2007 - Disclaimer

ORBIFLY MET'MAP TEAM :

Programmation & Développement : Alexandra Zaïnal
Sur une idée originale de : Baudouin d'Aumeries
Soutien technique & logistique : Manuel Goepfert
Assistance : Marc-Olivier Méhu




SOURCES & CREDITS :

   NOAA